Aérodrome :
LOGIN :

S'inscrire | Disclaimer

   EN    FR    IT 

 










Légende :    VFR   VFR Marginal   IFR   IFR Intensif   IFR Très Intensif
Visi : 
Plafond : 
>= 8 km
>= 3000ft
5 à 8 km
1000 à 3000 ft
1500m à 5 km
500 à 1000 ft
800 à 1500m
200 à 500 ft
< 800m
< 200 ft
Symboles :   Orages  Brouillard  Fortes neiges  Fortes précipitations  Vent > 20 kt
SIGMETs :   Divers  Orages  Givrage  Turbulence  Onde Orograph.  Cendres Volcan.







- Altitude de l'aérodrome : 209 ft
- Code IATA : CLY
- Voir les cartes d'approche


LFKC - Calvi

DERNIER METAR :
  • 300300Z AUTO 21003KT CAVOK 08/05 Q1014 NOSIG

METARs EXPIRÉS :
  • 300230Z AUTO VRB03KT CAVOK 09/05 Q1014 NOSIG
  • 300200Z AUTO 19005KT CAVOK 10/06 Q1015 NOSIG
  • 300130Z AUTO 19003KT CAVOK 08/05 Q1015 NOSIG
  • 300100Z AUTO 18004KT CAVOK 09/06 Q1015 NOSIG
  • 300030Z AUTO VRB03KT CAVOK 09/05 Q1015 NOSIG

TAF TAF LFKC
Valide du 29 à 18h jusqu'au 30 à 18h UTC


291700Z 2918/3018 19005KT 9999 FEW045
BECMG 3006/3007 35010KT TX19/3012Z TN06/3004Z
ATIS : +33 4 95 65 82 49
Pas de NOTAMs connus pour ce terrain.
1 SIGMET publié pour la FIR Marseille (LFMM) :
 
Turbulence forte
LFMM SIGMET 1 VALID 300000/300400 LFPW
LFMM MARSEILLE FIR/UIR SEV TURB FCST WI N4315 E00230 - N4430 E00245 - N4530 E00430 - N4530 E00500 SFC/FL060 STNR INTSF=



MET'MAP, la Météo Aéronautique d'un coup d'oeil ! - Copyright ORBIFLY Décembre 2007 - Disclaimer

ORBIFLY MET'MAP TEAM :

Programmation & Développement : Alexandra Zaïnal
Conception & Développement : Baudouin d'Aumeries
Co-Programmation & Développement : Marc-Olivier Méhu
Soutien technique & logistique : Manuel Goepfert

Contact : metmap@orbifly.com




SOURCES & CREDITS :

   NOAA